createdAt,value
2019-02-25T00:02:15.389Z,7.97
2019-02-25T00:04:42.663Z,7.63
2019-02-25T00:07:09.905Z,6.10
2019-02-25T00:09:37.170Z,8.80
2019-02-25T00:12:04.418Z,6.70
2019-02-25T00:14:31.689Z,7.40
2019-02-25T00:16:59.181Z,11.83
2019-02-25T00:19:26.694Z,4.80
2019-02-25T00:21:53.970Z,7.40
2019-02-25T00:24:21.250Z,9.33
2019-02-25T00:26:48.494Z,6.17
2019-02-25T00:29:15.765Z,5.40
2019-02-25T00:31:43.030Z,6.10
2019-02-25T00:34:10.301Z,6.40
2019-02-25T00:36:37.541Z,4.93
2019-02-25T00:39:05.555Z,5.10
2019-02-25T00:41:32.804Z,6.67
2019-02-25T00:44:00.074Z,7.97
2019-02-25T00:46:27.606Z,7.67
2019-02-25T00:48:54.880Z,4.20
2019-02-25T00:51:22.149Z,4.60
2019-02-25T00:53:49.694Z,7.50
2019-02-25T00:56:16.964Z,6.47
2019-02-25T00:58:44.234Z,4.70
2019-02-25T01:01:11.482Z,4.07
2019-02-25T01:03:39.003Z,4.70
2019-02-25T01:06:06.250Z,6.80
2019-02-25T01:08:33.742Z,8.50
2019-02-25T01:11:01.185Z,3.30
2019-02-25T01:13:28.709Z,5.73
2019-02-25T01:15:55.946Z,4.30
2019-02-25T01:18:23.217Z,4.50
2019-02-25T01:20:50.467Z,7.30
2019-02-25T01:23:17.774Z,6.27
2019-02-25T01:25:45.060Z,4.43
2019-02-25T01:28:12.302Z,5.60
2019-02-25T01:30:39.549Z,6.60
2019-02-25T01:33:06.822Z,7.00
2019-02-25T01:35:34.343Z,6.10
2019-02-25T01:38:01.608Z,4.47
2019-02-25T01:40:28.874Z,5.50
2019-02-25T01:42:56.400Z,4.93
2019-02-25T01:45:23.645Z,6.87
2019-02-25T01:47:50.913Z,4.50
2019-02-25T01:50:18.180Z,4.63
2019-02-25T01:52:45.451Z,9.80
2019-02-25T01:55:13.098Z,7.37
2019-02-25T01:57:40.602Z,5.03
2019-02-25T02:00:09.478Z,9.17
2019-02-25T02:02:36.722Z,6.90
2019-02-25T02:05:04.316Z,4.13
2019-02-25T02:07:31.584Z,4.83
2019-02-25T02:09:59.121Z,4.97
2019-02-25T02:12:26.374Z,4.70
2019-02-25T02:14:53.897Z,4.70
2019-02-25T02:17:21.403Z,5.80
2019-02-25T02:19:48.917Z,5.33
2019-02-25T02:22:16.406Z,4.53
2019-02-25T02:24:43.677Z,6.30
2019-02-25T02:27:10.922Z,7.50
2019-02-25T02:29:38.167Z,5.60
2019-02-25T02:32:05.711Z,6.47
2019-02-25T02:34:33.292Z,4.50
2019-02-25T02:37:00.535Z,5.30
2019-02-25T02:39:27.817Z,4.63
2019-02-25T02:42:11.093Z,6.90
2019-02-25T02:44:38.360Z,6.77
2019-02-25T02:47:07.139Z,7.27
2019-02-25T02:49:34.410Z,5.80
2019-02-25T02:52:01.914Z,7.10
2019-02-25T02:54:29.192Z,6.40
2019-02-25T02:56:56.430Z,5.17
2019-02-25T02:59:23.701Z,4.90
2019-02-25T03:01:50.965Z,6.00
2019-02-25T03:04:18.286Z,5.33
2019-02-25T03:06:45.639Z,7.80
2019-02-25T03:09:13.002Z,6.93
2019-02-25T03:11:40.246Z,6.30
2019-02-25T03:14:07.488Z,7.03
2019-02-25T03:16:35.022Z,5.77
2019-02-25T03:19:02.265Z,5.80
2019-02-25T03:21:29.525Z,5.93
2019-02-25T03:23:56.774Z,10.00
2019-02-25T03:26:24.304Z,5.53
2019-02-25T03:28:51.546Z,5.20
2019-02-25T03:31:19.076Z,8.17
2019-02-25T03:33:46.419Z,4.30
2019-02-25T03:36:13.689Z,15.07
2019-02-25T03:38:41.285Z,6.13
2019-02-25T03:41:08.589Z,5.13
2019-02-25T03:43:35.857Z,7.07
2019-02-25T03:46:03.174Z,5.50
2019-02-25T03:48:30.443Z,9.77
2019-02-25T03:50:57.982Z,7.60
2019-02-25T03:53:25.253Z,5.33
2019-02-25T03:55:52.498Z,6.47
2019-02-25T03:58:19.869Z,5.80
2019-02-25T04:00:47.363Z,5.80
2019-02-25T04:03:14.604Z,6.50
2019-02-25T04:05:41.941Z,4.17
2019-02-25T04:08:09.259Z,4.60
2019-02-25T04:10:36.605Z,5.97
2019-02-25T04:13:03.880Z,5.60
2019-02-25T04:15:32.765Z,4.07
2019-02-25T04:18:00.044Z,6.60
2019-02-25T04:20:27.332Z,5.87
2019-02-25T04:22:54.681Z,6.90
2019-02-25T04:25:21.925Z,4.40
2019-02-25T04:27:49.175Z,4.97
2019-02-25T04:30:16.702Z,6.90
2019-02-25T04:32:43.976Z,4.60
2019-02-25T04:35:12.167Z,6.97
2019-02-25T04:37:39.700Z,5.30
2019-02-25T04:40:08.439Z,6.03
2019-02-25T04:42:35.689Z,5.67
2019-02-25T04:45:03.229Z,8.50
2019-02-25T04:47:30.499Z,5.80
2019-02-25T04:49:57.771Z,5.83
2019-02-25T04:52:25.050Z,5.87
2019-02-25T04:54:52.298Z,5.20
2019-02-25T04:57:19.579Z,5.00
2019-02-25T04:59:47.142Z,5.50
2019-02-25T05:02:14.446Z,11.80
2019-02-25T05:04:41.691Z,4.20
2019-02-25T05:07:08.962Z,6.20
2019-02-25T05:09:36.208Z,5.50
2019-02-25T05:12:03.752Z,6.10
2019-02-25T05:14:30.999Z,5.47
2019-02-25T05:16:58.529Z,5.00
2019-02-25T05:19:26.118Z,5.77
2019-02-25T05:21:53.641Z,4.40
2019-02-25T05:24:20.911Z,5.70
2019-02-25T05:26:48.171Z,4.70
2019-02-25T05:29:15.450Z,6.00
2019-02-25T05:31:42.953Z,10.80
2019-02-25T05:34:10.215Z,7.33
2019-02-25T05:36:37.742Z,7.17
2019-02-25T05:39:05.662Z,7.73
2019-02-25T05:41:32.994Z,7.10
2019-02-25T05:44:00.345Z,8.90
2019-02-25T05:46:27.586Z,7.20
2019-02-25T05:48:54.854Z,10.10
2019-02-25T05:51:22.110Z,16.93
2019-02-25T05:53:49.393Z,8.63
2019-02-25T05:56:16.670Z,7.97
2019-02-25T05:58:43.946Z,11.10
2019-02-25T06:01:11.199Z,10.60
2019-02-25T06:03:38.756Z,5.30
2019-02-25T06:06:06.000Z,6.13
2019-02-25T06:08:33.322Z,5.77
2019-02-25T06:11:00.603Z,8.00
2019-02-25T06:13:27.850Z,18.63
2019-02-25T06:15:55.100Z,8.50
2019-02-25T06:18:22.356Z,9.33
2019-02-25T06:20:49.878Z,10.53
2019-02-25T06:23:17.124Z,6.50
2019-02-25T06:25:44.754Z,11.50
2019-02-25T06:28:12.035Z,7.27
2019-02-25T06:30:39.517Z,6.57
2019-02-25T06:33:06.791Z,6.37
2019-02-25T06:35:34.283Z,9.00
2019-02-25T06:38:01.546Z,9.43
2019-02-25T06:40:28.898Z,5.23
2019-02-25T06:42:56.169Z,5.23
2019-02-25T06:45:24.886Z,5.90
2019-02-25T06:47:52.171Z,5.17
2019-02-25T06:50:19.482Z,5.90
2019-02-25T06:52:46.728Z,5.47
2019-02-25T06:55:15.538Z,7.63
2019-02-25T06:57:43.200Z,7.90
2019-02-25T07:00:11.982Z,7.53
2019-02-25T07:02:39.338Z,14.80
2019-02-25T07:05:11.798Z,7.90
2019-02-25T07:07:58.799Z,5.20
2019-02-25T07:10:27.714Z,11.07
2019-02-25T07:12:56.636Z,5.67
2019-02-25T07:15:25.766Z,6.40
2019-02-25T07:17:54.653Z,5.30
2019-02-25T07:20:23.561Z,5.73
2019-02-25T07:22:55.398Z,10.37
2019-02-25T07:25:33.260Z,7.20
2019-02-25T07:28:07.847Z,6.60
2019-02-25T07:30:52.838Z,5.67
2019-02-25T07:33:33.594Z,7.23
2019-02-25T07:36:08.158Z,6.57
2019-02-25T07:38:39.335Z,12.80
2019-02-25T07:41:22.708Z,7.00
2019-02-25T07:44:06.422Z,10.05
2019-02-25T07:46:35.413Z,10.90
2019-02-25T07:49:04.302Z,6.20
2019-02-25T07:51:33.296Z,6.53
2019-02-25T07:54:10.854Z,8.33
2019-02-25T07:56:56.129Z,5.70
2019-02-25T07:59:25.037Z,6.80
2019-02-25T08:01:56.858Z,5.43
2019-02-25T08:04:26.018Z,10.37
2019-02-25T08:06:57.914Z,6.50
2019-02-25T08:09:32.788Z,5.60
2019-02-25T08:12:10.496Z,8.03
2019-02-25T08:14:45.115Z,8.93
2019-02-25T08:17:30.614Z,8.90
2019-02-25T08:20:17.130Z,8.20
2019-02-25T08:23:04.037Z,12.37
2019-02-25T08:25:44.732Z,7.60
2019-02-25T08:28:29.908Z,8.60
2019-02-25T08:31:09.214Z,20.07
2019-02-25T08:33:41.130Z,9.90
2019-02-25T08:36:20.595Z,9.20
2019-02-25T08:39:04.289Z,5.63
2019-02-25T08:41:35.827Z,7.70
2019-02-25T08:44:07.666Z,8.60
2019-02-25T08:46:36.583Z,7.33
2019-02-25T08:49:11.309Z,8.10
2019-02-25T08:51:38.619Z,7.20
2019-02-25T08:54:05.890Z,8.20
2019-02-25T08:56:33.129Z,7.80
2019-02-25T08:59:00.405Z,8.30
2019-02-25T09:01:27.894Z,7.40
2019-02-25T09:03:55.426Z,9.60
2019-02-25T09:06:22.963Z,8.10
2019-02-25T09:08:50.250Z,10.13
2019-02-25T09:11:17.581Z,11.27
2019-02-25T09:13:44.824Z,9.53
2019-02-25T09:16:12.093Z,7.67
2019-02-25T09:18:39.418Z,7.30
2019-02-25T09:21:08.110Z,6.57
2019-02-25T09:23:35.631Z,7.13
2019-02-25T09:26:02.898Z,7.27
2019-02-25T09:28:30.174Z,7.80
2019-02-25T09:30:57.422Z,4.50
2019-02-25T09:33:24.913Z,8.47
2019-02-25T09:35:52.183Z,6.73
2019-02-25T09:38:19.685Z,4.17
2019-02-25T09:40:46.949Z,5.50
2019-02-25T09:43:14.433Z,3.03
2019-02-25T09:45:41.697Z,5.03
2019-02-25T09:48:09.203Z,3.73
2019-02-25T09:50:36.537Z,4.10
2019-02-25T09:53:03.781Z,3.37
2019-02-25T09:55:31.306Z,4.13
2019-02-25T09:57:58.808Z,4.00
2019-02-25T10:00:26.341Z,3.80
2019-02-25T10:02:53.588Z,2.63
2019-02-25T10:05:21.170Z,3.87
2019-02-25T10:07:48.711Z,2.87
2019-02-25T10:10:17.550Z,4.87
2019-02-25T10:12:44.827Z,4.40
2019-02-25T10:15:22.018Z,5.90
2019-02-25T10:17:49.290Z,5.47
2019-02-25T10:20:16.530Z,4.87
2019-02-25T10:22:43.801Z,3.70
2019-02-25T10:25:11.214Z,5.30
2019-02-25T10:27:38.485Z,4.03
2019-02-25T10:30:07.632Z,5.50
2019-02-25T10:32:34.883Z,5.00
2019-02-25T10:35:02.158Z,4.00
2019-02-25T10:37:29.398Z,9.10
2019-02-25T10:39:56.679Z,3.03
2019-02-25T10:42:23.922Z,3.67
2019-02-25T10:44:51.165Z,7.90
2019-02-25T10:47:19.854Z,10.20
2019-02-25T10:49:47.412Z,9.57
2019-02-25T10:52:15.146Z,6.70
2019-02-25T10:54:43.725Z,4.93
2019-02-25T10:57:11.000Z,4.53
2019-02-25T10:59:39.520Z,3.70
2019-02-25T11:02:08.607Z,4.70
2019-02-25T11:04:36.334Z,5.23
2019-02-25T11:07:05.657Z,3.87
2019-02-25T11:09:37.419Z,4.97
2019-02-25T11:12:04.702Z,3.77
2019-02-25T11:14:33.343Z,2.77
2019-02-25T11:17:00.916Z,2.90
2019-02-25T11:19:28.639Z,3.17
2019-02-25T11:21:57.167Z,2.97
2019-02-25T11:24:25.397Z,5.20
2019-02-25T11:26:52.838Z,7.40
2019-02-25T11:29:20.367Z,3.10
2019-02-25T11:31:49.505Z,3.43
2019-02-25T11:34:16.953Z,2.33
2019-02-25T11:36:44.274Z,2.70
2019-02-25T11:39:13.458Z,3.57
2019-02-25T11:41:41.166Z,4.20
2019-02-25T11:44:08.470Z,6.07
2019-02-25T11:46:35.749Z,4.60
2019-02-25T11:49:02.991Z,4.83
2019-02-25T11:51:30.265Z,5.53
2019-02-25T11:53:59.450Z,4.03
2019-02-25T11:56:26.572Z,2.53
2019-02-25T11:58:53.810Z,5.10
2019-02-25T12:01:21.091Z,2.40
2019-02-25T12:03:48.576Z,2.40
2019-02-25T12:06:15.848Z,2.60
2019-02-25T12:08:43.091Z,3.80
2019-02-25T12:11:10.582Z,1.67
2019-02-25T12:13:37.857Z,2.40
2019-02-25T12:16:05.104Z,1.87
2019-02-25T12:18:32.377Z,2.80
2019-02-25T12:20:59.626Z,2.40
2019-02-25T12:23:26.900Z,2.90
2019-02-25T12:25:54.174Z,3.47
2019-02-25T12:28:21.447Z,3.60
2019-02-25T12:30:48.718Z,3.30
2019-02-25T12:33:15.995Z,2.70
2019-02-25T12:35:43.506Z,2.40
2019-02-25T12:38:11.004Z,2.20
2019-02-25T12:40:38.273Z,2.77
2019-02-25T12:43:05.513Z,4.70
2019-02-25T12:45:32.779Z,3.27
2019-02-25T12:48:00.057Z,2.53
2019-02-25T12:50:27.653Z,2.40
2019-02-25T12:52:54.889Z,3.17
2019-02-25T12:55:22.240Z,2.13
2019-02-25T12:57:49.513Z,4.07
2019-02-25T13:00:17.164Z,3.43
2019-02-25T13:02:44.665Z,2.00
2019-02-25T13:05:18.816Z,4.40
2019-02-25T13:07:46.167Z,6.80
2019-02-25T13:10:14.182Z,4.10
2019-02-25T13:12:41.455Z,1.90
2019-02-25T13:15:13.282Z,3.97
2019-02-25T13:17:39.055Z,2.70
2019-02-25T13:20:07.917Z,2.67
2019-02-25T13:22:35.180Z,3.87
2019-02-25T13:25:03.265Z,2.40
2019-02-25T13:27:31.430Z,3.30
2019-02-25T13:29:59.246Z,2.53
2019-02-25T13:32:28.069Z,3.93
2019-02-25T13:34:56.612Z,4.70
2019-02-25T13:37:24.039Z,2.60
2019-02-25T13:39:51.655Z,1.63
2019-02-25T13:42:19.049Z,2.40
2019-02-25T13:44:46.884Z,2.13
2019-02-25T13:47:14.197Z,3.03
2019-02-25T13:49:41.993Z,5.20
2019-02-25T13:52:09.533Z,2.50
2019-02-25T13:54:36.925Z,4.40
2019-02-25T13:57:04.273Z,4.93
2019-02-25T13:59:31.853Z,4.50
2019-02-25T14:01:59.195Z,2.40
2019-02-25T14:04:26.762Z,1.73
2019-02-25T14:06:54.362Z,1.50
2019-02-25T14:09:21.720Z,2.07
2019-02-25T14:11:49.290Z,2.03
2019-02-25T14:14:16.534Z,1.10
2019-02-25T14:16:43.886Z,1.30
2019-02-25T14:19:11.674Z,0.80
2019-02-25T14:21:39.022Z,1.47
2019-02-25T14:24:06.362Z,1.10
2019-02-25T14:26:33.664Z,2.10
2019-02-25T14:29:01.350Z,1.27
2019-02-25T14:31:29.954Z,1.20
2019-02-25T14:33:57.349Z,2.13
2019-02-25T14:36:24.701Z,1.03
2019-02-25T14:38:54.029Z,1.07
2019-02-25T14:41:21.362Z,1.20
2019-02-25T14:43:51.047Z,1.53
2019-02-25T14:46:24.048Z,0.87
2019-02-25T14:48:48.000Z,1.83
2019-02-25T14:51:15.242Z,0.80
2019-02-25T14:53:44.557Z,1.57
2019-02-25T14:56:11.556Z,5.47
2019-02-25T14:58:40.616Z,0.77
2019-02-25T15:01:08.105Z,1.60
2019-02-25T15:03:35.421Z,2.00
2019-02-25T15:06:02.946Z,1.93
2019-02-25T15:08:30.715Z,3.40
2019-02-25T15:11:01.905Z,1.87
2019-02-25T15:13:28.210Z,0.83
2019-02-25T15:15:56.659Z,1.90
2019-02-25T15:18:25.207Z,2.10
2019-02-25T15:20:53.578Z,9.33
2019-02-25T15:23:23.641Z,3.40
2019-02-25T15:25:49.947Z,3.00
2019-02-25T15:28:18.306Z,8.70
2019-02-25T15:30:46.617Z,2.50
2019-02-25T15:33:13.983Z,3.63
2019-02-25T15:35:42.101Z,1.90
2019-02-25T15:38:10.285Z,2.30
2019-02-25T15:40:37.910Z,2.40
2019-02-25T15:43:10.423Z,1.90
2019-02-25T15:45:38.346Z,5.07
2019-02-25T15:48:05.618Z,2.83
2019-02-25T15:50:32.967Z,3.33
2019-02-25T15:53:02.552Z,2.30
2019-02-25T15:55:29.278Z,1.33
2019-02-25T15:57:56.598Z,0.97
2019-02-25T16:00:27.494Z,0.80
2019-02-25T16:02:57.033Z,1.43
2019-02-25T16:05:27.879Z,1.60
2019-02-25T16:07:55.934Z,1.70
2019-02-25T16:10:24.119Z,1.00
2019-02-25T16:12:53.718Z,1.00
2019-02-25T16:15:21.980Z,1.20
2019-02-25T16:17:51.634Z,1.97
2019-02-25T16:20:20.537Z,2.33
2019-02-25T16:22:48.050Z,2.50
2019-02-25T16:25:19.331Z,2.40
2019-02-25T16:27:49.892Z,1.90
2019-02-25T16:30:16.993Z,1.07
2019-02-25T16:32:46.280Z,2.83
2019-02-25T16:35:14.828Z,3.43
2019-02-25T16:37:42.801Z,6.03
2019-02-25T16:40:11.276Z,2.43
2019-02-25T16:42:39.369Z,1.00
2019-02-25T16:45:09.606Z,1.27
2019-02-25T16:47:38.384Z,2.30
2019-02-25T16:50:07.425Z,2.23
2019-02-25T16:52:36.132Z,2.40
2019-02-25T16:55:05.145Z,4.73
2019-02-25T16:57:32.409Z,2.50
2019-02-25T17:00:00.306Z,1.57
2019-02-25T17:02:30.182Z,2.37
2019-02-25T17:04:59.015Z,3.90
2019-02-25T17:07:26.659Z,4.87
2019-02-25T17:09:55.391Z,1.87
2019-02-25T17:12:25.777Z,4.13
2019-02-25T17:14:55.485Z,1.40
2019-02-25T17:17:24.838Z,2.30
2019-02-25T17:19:54.069Z,2.70
2019-02-25T17:22:23.613Z,2.47
2019-02-25T17:24:52.422Z,1.63
2019-02-25T17:27:21.543Z,2.50
2019-02-25T17:29:53.835Z,2.20
2019-02-25T17:32:21.682Z,4.77
2019-02-25T17:34:49.874Z,2.90
2019-02-25T17:37:17.251Z,1.10
2019-02-25T17:39:44.537Z,5.00
2019-02-25T17:42:12.722Z,1.30
2019-02-25T17:44:40.258Z,1.00
2019-02-25T17:47:08.776Z,1.30
2019-02-25T17:49:38.055Z,4.80
2019-02-25T17:52:05.834Z,1.53
2019-02-25T17:54:33.932Z,2.43
2019-02-25T17:57:03.247Z,6.37
2019-02-25T17:59:31.650Z,2.53
2019-02-25T18:01:59.086Z,4.90
2019-02-25T18:04:28.162Z,1.50
2019-02-25T18:06:55.323Z,2.10
2019-02-25T18:09:24.367Z,1.27
2019-02-25T18:11:51.735Z,1.10
2019-02-25T18:14:19.880Z,2.93
2019-02-25T18:16:48.843Z,4.83
2019-02-25T18:19:18.605Z,2.33
2019-02-25T18:21:47.692Z,1.60
2019-02-25T18:24:15.818Z,1.90
2019-02-25T18:26:44.430Z,3.30
2019-02-25T18:29:15.636Z,3.67
2019-02-25T18:31:42.850Z,2.73
2019-02-25T18:34:11.698Z,2.37
2019-02-25T18:36:40.449Z,4.80
2019-02-25T18:39:10.244Z,2.47
2019-02-25T18:41:38.160Z,2.50
2019-02-25T18:44:07.042Z,1.87
2019-02-25T18:46:34.597Z,2.13
2019-02-25T18:49:03.113Z,1.53
2019-02-25T18:51:32.832Z,3.83
2019-02-25T18:54:01.926Z,3.17
2019-02-25T18:56:29.214Z,7.03
2019-02-25T18:59:07.094Z,4.57
2019-02-25T19:01:25.659Z,3.20
2019-02-25T19:03:54.758Z,3.77
2019-02-25T19:06:23.558Z,3.83
2019-02-25T19:08:51.642Z,5.80
2019-02-25T19:11:21.304Z,12.63
2019-02-25T19:13:49.843Z,8.53
2019-02-25T19:16:19.778Z,5.57
2019-02-25T19:18:49.356Z,8.00
2019-02-25T19:21:16.714Z,8.13
2019-02-25T19:23:44.754Z,7.27
2019-02-25T19:26:15.389Z,8.63
2019-02-25T19:28:44.040Z,5.63
2019-02-25T19:31:11.414Z,5.23
2019-02-25T19:33:38.728Z,7.70
2019-02-25T19:36:07.043Z,11.33
2019-02-25T19:38:36.712Z,6.53
2019-02-25T19:41:04.342Z,6.00
2019-02-25T19:43:31.655Z,5.20
2019-02-25T19:45:59.514Z,4.33
2019-02-25T19:48:29.398Z,5.63
2019-02-25T19:50:58.533Z,6.43
2019-02-25T19:53:26.347Z,3.50
2019-02-25T19:55:53.944Z,6.40
2019-02-25T19:58:21.290Z,5.70
2019-02-25T20:00:50.608Z,5.33
2019-02-25T20:03:17.601Z,4.33
2019-02-25T20:05:46.327Z,6.50
2019-02-25T20:08:14.488Z,4.67
2019-02-25T20:10:41.814Z,4.73
2019-02-25T20:13:09.415Z,7.27
2019-02-25T20:15:39.580Z,3.80
2019-02-25T20:18:07.173Z,4.47
2019-02-25T20:20:36.518Z,6.27
2019-02-25T20:23:05.993Z,4.33
2019-02-25T20:25:33.243Z,4.33
2019-02-25T20:28:02.534Z,6.30
2019-02-25T20:30:30.586Z,4.60
2019-02-25T20:32:58.972Z,4.47
2019-02-25T20:35:28.999Z,3.30
2019-02-25T20:37:57.907Z,4.27
2019-02-25T20:40:26.646Z,3.60
2019-02-25T20:42:55.925Z,5.00
2019-02-25T20:45:25.260Z,7.53
2019-02-25T20:47:54.731Z,2.93
2019-02-25T20:50:22.176Z,3.90
2019-02-25T20:52:49.446Z,5.50
2019-02-25T20:55:16.690Z,5.80
2019-02-25T20:57:44.335Z,3.07
2019-02-25T21:00:13.263Z,5.63
2019-02-25T21:02:41.771Z,4.03
2019-02-25T21:05:13.930Z,3.10
2019-02-25T21:07:39.002Z,7.47
2019-02-25T21:10:08.056Z,2.87
2019-02-25T21:12:35.419Z,6.03
2019-02-25T21:15:02.690Z,2.17
2019-02-25T21:17:30.839Z,2.20
2019-02-25T21:20:00.410Z,2.17
2019-02-25T21:22:29.481Z,4.30
2019-02-25T21:24:58.086Z,4.70
2019-02-25T21:27:28.336Z,2.30
2019-02-25T21:29:56.754Z,2.83
2019-02-25T21:32:25.855Z,2.17
2019-02-25T21:34:55.398Z,2.13
2019-02-25T21:37:23.394Z,4.70
2019-02-25T21:39:51.394Z,2.10
2019-02-25T21:42:20.228Z,6.03
2019-02-25T21:44:48.651Z,5.77
2019-02-25T21:47:20.221Z,2.40
2019-02-25T21:49:46.098Z,1.83
2019-02-25T21:52:15.414Z,1.40
2019-02-25T21:54:44.812Z,2.90
2019-02-25T21:57:11.602Z,3.33
2019-02-25T21:59:41.064Z,3.40
2019-02-25T22:02:08.086Z,3.57
2019-02-25T22:04:38.507Z,2.07
2019-02-25T22:07:04.337Z,1.73
2019-02-25T22:09:36.913Z,8.50
2019-02-25T22:12:00.822Z,2.60
2019-02-25T22:14:28.089Z,2.57
2019-02-25T22:16:56.634Z,4.27
2019-02-25T22:19:24.628Z,2.70
2019-02-25T22:21:55.627Z,7.60
2019-02-25T22:24:24.761Z,2.20
2019-02-25T22:26:51.528Z,5.27
2019-02-25T22:29:18.823Z,6.00
2019-02-25T22:31:46.063Z,3.00
2019-02-25T22:34:15.319Z,4.30
2019-02-25T22:36:44.354Z,1.70
2019-02-25T22:39:11.613Z,4.30
2019-02-25T22:41:40.245Z,2.77
2019-02-25T22:44:08.469Z,1.93
2019-02-25T22:46:39.088Z,1.90
2019-02-25T22:49:07.258Z,3.50
2019-02-25T22:51:35.363Z,1.47
2019-02-25T22:54:06.276Z,2.03
2019-02-25T22:56:33.002Z,1.63
2019-02-25T22:59:02.687Z,2.00
2019-02-25T23:01:29.530Z,1.63
2019-02-25T23:03:57.447Z,2.10
2019-02-25T23:06:25.361Z,1.90
2019-02-25T23:08:53.295Z,2.13
2019-02-25T23:11:23.813Z,3.37
2019-02-25T23:13:52.541Z,2.33
2019-02-25T23:16:22.526Z,1.80
2019-02-25T23:18:48.997Z,1.70
2019-02-25T23:21:23.542Z,2.67
2019-02-25T23:23:45.739Z,2.13
2019-02-25T23:26:14.816Z,1.53
2019-02-25T23:28:42.277Z,2.10
2019-02-25T23:31:09.795Z,3.03
2019-02-25T23:33:40.149Z,2.00
2019-02-25T23:36:08.361Z,2.97
2019-02-25T23:38:35.265Z,4.23
2019-02-25T23:41:05.243Z,2.47
2019-02-25T23:43:35.983Z,1.67
2019-02-25T23:46:02.208Z,1.20
2019-02-25T23:48:32.936Z,2.47
2019-02-25T23:50:59.595Z,1.50
2019-02-25T23:53:28.842Z,3.13
2019-02-25T23:55:56.580Z,5.43
2019-02-25T23:58:24.894Z,3.53
